sensor_id;sensor_type;location;lat;lon;timestamp;pressure;altitude;pressure_sealevel;temperature;humidity
10978;BME280;5542;48.272;10.794;2023-02-11T00:01:47;97564.53;;;-2.36;75.37
10978;BME280;5542;48.272;10.794;2023-02-11T00:04:15;97568.03;;;-2.37;75.81
10978;BME280;5542;48.272;10.794;2023-02-11T00:06:41;97576.47;;;-2.35;75.75
10978;BME280;5542;48.272;10.794;2023-02-11T00:09:09;97564.34;;;-2.33;75.65
10978;BME280;5542;48.272;10.794;2023-02-11T00:11:37;97570.09;;;-2.29;75.74
10978;BME280;5542;48.272;10.794;2023-02-11T00:14:05;97565.56;;;-2.25;75.49
10978;BME280;5542;48.272;10.794;2023-02-11T00:16:33;97565.34;;;-2.35;75.70
10978;BME280;5542;48.272;10.794;2023-02-11T00:19:01;97559.19;;;-2.33;75.70
10978;BME280;5542;48.272;10.794;2023-02-11T00:21:28;97556.59;;;-2.33;75.79
10978;BME280;5542;48.272;10.794;2023-02-11T00:23:55;97557.09;;;-2.40;75.97
10978;BME280;5542;48.272;10.794;2023-02-11T00:26:26;97551.94;;;-2.40;76.30
10978;BME280;5542;48.272;10.794;2023-02-11T00:28:54;97557.09;;;-2.40;76.44
10978;BME280;5542;48.272;10.794;2023-02-11T00:31:22;97555.16;;;-2.37;76.08
10978;BME280;5542;48.272;10.794;2023-02-11T00:33:49;97549.06;;;-2.36;76.55
10978;BME280;5542;48.272;10.794;2023-02-11T00:36:17;97551.44;;;-2.33;75.97
10978;BME280;5542;48.272;10.794;2023-02-11T00:38:44;97544.94;;;-2.38;75.86
10978;BME280;5542;48.272;10.794;2023-02-11T00:41:11;97550.19;;;-2.40;76.29
10978;BME280;5542;48.272;10.794;2023-02-11T00:43:38;97549.38;;;-2.40;75.82
10978;BME280;5542;48.272;10.794;2023-02-11T00:46:07;97546.69;;;-2.39;75.70
10978;BME280;5542;48.272;10.794;2023-02-11T00:48:34;97542.56;;;-2.41;75.69
10978;BME280;5542;48.272;10.794;2023-02-11T00:51:01;97544.63;;;-2.46;75.50
10978;BME280;5542;48.272;10.794;2023-02-11T00:53:28;97548.34;;;-2.50;75.41
10978;BME280;5542;48.272;10.794;2023-02-11T00:55:55;97558.72;;;-2.52;75.34
10978;BME280;5542;48.272;10.794;2023-02-11T00:58:22;97558.22;;;-2.57;75.87
10978;BME280;5542;48.272;10.794;2023-02-11T01:00:48;97557.38;;;-2.58;75.91
10978;BME280;5542;48.272;10.794;2023-02-11T01:03:16;97552.97;;;-2.55;75.58
10978;BME280;5542;48.272;10.794;2023-02-11T01:05:43;97554.63;;;-2.54;75.17
10978;BME280;5542;48.272;10.794;2023-02-11T01:08:10;97561.31;;;-2.65;75.39
10978;BME280;5542;48.272;10.794;2023-02-11T01:10:36;97559.75;;;-2.67;75.90
10978;BME280;5542;48.272;10.794;2023-02-11T01:13:03;97560.50;;;-2.65;75.77
10978;BME280;5542;48.272;10.794;2023-02-11T01:15:31;97561.31;;;-2.65;75.65
10978;BME280;5542;48.272;10.794;2023-02-11T01:17:58;97549.25;;;-2.64;75.70
10978;BME280;5542;48.272;10.794;2023-02-11T01:20:27;97544.72;;;-2.61;75.48
10978;BME280;5542;48.272;10.794;2023-02-11T01:22:54;97544.81;;;-2.62;75.35
10978;BME280;5542;48.272;10.794;2023-02-11T01:25:20;97553.47;;;-2.63;75.61
10978;BME280;5542;48.272;10.794;2023-02-11T01:27:47;97545.75;;;-2.63;75.81
10978;BME280;5542;48.272;10.794;2023-02-11T01:30:13;97542.47;;;-2.65;75.91
10978;BME280;5542;48.272;10.794;2023-02-11T01:32:40;97543.38;;;-2.66;75.52
10978;BME280;5542;48.272;10.794;2023-02-11T01:35:07;97550.50;;;-2.70;75.89
10978;BME280;5542;48.272;10.794;2023-02-11T01:37:35;97553.38;;;-2.74;75.65
10978;BME280;5542;48.272;10.794;2023-02-11T01:40:02;97550.56;;;-2.71;75.97
10978;BME280;5542;48.272;10.794;2023-02-11T01:42:29;97555.22;;;-2.76;76.21
10978;BME280;5542;48.272;10.794;2023-02-11T01:44:56;97550.06;;;-2.76;76.51
10978;BME280;5542;48.272;10.794;2023-02-11T01:47:23;97547.88;;;-2.83;76.22
10978;BME280;5542;48.272;10.794;2023-02-11T01:49:52;97542.84;;;-2.84;76.62
10978;BME280;5542;48.272;10.794;2023-02-11T01:52:23;97543.03;;;-2.87;76.11
10978;BME280;5542;48.272;10.794;2023-02-11T01:54:54;97546.63;;;-2.90;76.49
10978;BME280;5542;48.272;10.794;2023-02-11T01:57:42;97542.41;;;-2.91;76.55
10978;BME280;5542;48.272;10.794;2023-02-11T02:00:14;97539.31;;;-2.96;76.70
10978;BME280;5542;48.272;10.794;2023-02-11T02:02:50;97540.44;;;-3.00;76.73
10978;BME280;5542;48.272;10.794;2023-02-11T02:05:27;97529.31;;;-3.00;77.06
10978;BME280;5542;48.272;10.794;2023-02-11T02:08:03;97535.09;;;-2.97;77.23
10978;BME280;5542;48.272;10.794;2023-02-11T02:10:33;97535.91;;;-2.96;77.08
10978;BME280;5542;48.272;10.794;2023-02-11T02:13:00;97530.88;;;-2.98;77.20
10978;BME280;5542;48.272;10.794;2023-02-11T02:15:29;97530.88;;;-2.98;77.09
10978;BME280;5542;48.272;10.794;2023-02-11T02:18:12;97524.97;;;-3.00;77.20
10978;BME280;5542;48.272;10.794;2023-02-11T02:27:10;97503.38;;;-2.97;76.32
10978;BME280;5542;48.272;10.794;2023-02-11T02:30:05;97492.97;;;-2.96;75.97
10978;BME280;5542;48.272;10.794;2023-02-11T02:32:49;97489.38;;;-2.93;75.67
10978;BME280;5542;48.272;10.794;2023-02-11T02:35:28;97486.59;;;-3.03;75.74
10978;BME280;5542;48.272;10.794;2023-02-11T02:38:00;97471.16;;;-3.03;75.62
10978;BME280;5542;48.272;10.794;2023-02-11T02:40:31;97462.91;;;-3.08;75.87
10978;BME280;5542;48.272;10.794;2023-02-11T02:42:59;97462.16;;;-3.10;75.86
10978;BME280;5542;48.272;10.794;2023-02-11T02:45:27;97466.69;;;-3.14;75.67
10978;BME280;5542;48.272;10.794;2023-02-11T02:47:55;97463.28;;;-3.14;76.07
10978;BME280;5542;48.272;10.794;2023-02-11T02:50:26;97448.25;;;-3.20;76.10
10978;BME280;5542;48.272;10.794;2023-02-11T02:53:03;97446.38;;;-3.31;76.41
10978;BME280;5542;48.272;10.794;2023-02-11T02:55:43;97438.75;;;-3.32;76.81
10978;BME280;5542;48.272;10.794;2023-02-11T02:58:36;97434.47;;;-3.32;76.98
10978;BME280;5542;48.272;10.794;2023-02-11T03:01:18;97430.94;;;-3.18;76.72
10978;BME280;5542;48.272;10.794;2023-02-11T03:03:58;97440.66;;;-3.22;76.65
10978;BME280;5542;48.272;10.794;2023-02-11T03:06:29;97459.44;;;-3.34;77.11
10978;BME280;5542;48.272;10.794;2023-02-11T03:09:03;97462.19;;;-3.37;77.34
10978;BME280;5542;48.272;10.794;2023-02-11T03:11:31;97454.06;;;-3.44;77.94
10978;BME280;5542;48.272;10.794;2023-02-11T03:14:01;97470.63;;;-3.48;78.09
10978;BME280;5542;48.272;10.794;2023-02-11T03:16:29;97458.28;;;-3.55;78.81
10978;BME280;5542;48.272;10.794;2023-02-11T03:19:05;97471.84;;;-3.53;78.53
10978;BME280;5542;48.272;10.794;2023-02-11T03:21:35;97471.84;;;-3.53;78.50
10978;BME280;5542;48.272;10.794;2023-02-11T03:24:06;97469.69;;;-3.47;78.54
10978;BME280;5542;48.272;10.794;2023-02-11T03:26:39;97473.72;;;-3.43;78.70
10978;BME280;5542;48.272;10.794;2023-02-11T03:29:13;97479.91;;;-3.32;78.10
10978;BME280;5542;48.272;10.794;2023-02-11T03:31:49;97472.94;;;-3.30;78.04
10978;BME280;5542;48.272;10.794;2023-02-11T03:34:24;97471.00;;;-3.27;77.85
10978;BME280;5542;48.272;10.794;2023-02-11T03:36:56;97467.69;;;-3.29;77.45
10978;BME280;5542;48.272;10.794;2023-02-11T03:39:30;97467.38;;;-3.24;76.98
10978;BME280;5542;48.272;10.794;2023-02-11T03:42:00;97441.03;;;-3.28;76.75
10978;BME280;5542;48.272;10.794;2023-02-11T03:44:31;97444.34;;;-3.26;76.90
10978;BME280;5542;48.272;10.794;2023-02-11T03:47:01;97449.03;;;-3.32;76.63
10978;BME280;5542;48.272;10.794;2023-02-11T03:49:31;97436.28;;;-3.34;77.21
10978;BME280;5542;48.272;10.794;2023-02-11T03:51:59;97438.97;;;-3.36;76.90
10978;BME280;5542;48.272;10.794;2023-02-11T03:54:30;97438.75;;;-3.32;77.15
10978;BME280;5542;48.272;10.794;2023-02-11T03:56:59;97440.19;;;-3.28;76.99
10978;BME280;5542;48.272;10.794;2023-02-11T03:59:27;97451.31;;;-3.28;76.65
10978;BME280;5542;48.272;10.794;2023-02-11T04:01:54;97458.13;;;-3.27;76.69
10978;BME280;5542;48.272;10.794;2023-02-11T04:04:21;97467.50;;;-3.26;76.92
10978;BME280;5542;48.272;10.794;2023-02-11T04:06:49;97463.16;;;-3.25;76.73
10978;BME280;5542;48.272;10.794;2023-02-11T04:09:16;97460.41;;;-3.22;76.33
10978;BME280;5542;48.272;10.794;2023-02-11T04:11:42;97472.34;;;-3.21;76.23
10978;BME280;5542;48.272;10.794;2023-02-11T04:14:09;97463.88;;;-3.23;75.97
10978;BME280;5542;48.272;10.794;2023-02-11T04:16:36;97469.88;;;-3.23;76.08
10978;BME280;5542;48.272;10.794;2023-02-11T04:19:02;97488.19;;;-3.27;76.19
10978;BME280;5542;48.272;10.794;2023-02-11T04:21:29;97490.66;;;-3.26;76.20
10978;BME280;5542;48.272;10.794;2023-02-11T04:23:57;97491.47;;;-3.25;76.62
10978;BME280;5542;48.272;10.794;2023-02-11T04:26:23;97491.66;;;-3.28;76.49
10978;BME280;5542;48.272;10.794;2023-02-11T04:28:50;97497.41;;;-3.38;76.31
10978;BME280;5542;48.272;10.794;2023-02-11T04:31:16;97500.91;;;-3.39;76.47
10978;BME280;5542;48.272;10.794;2023-02-11T04:33:43;97507.41;;;-3.33;76.76
10978;BME280;5542;48.272;10.794;2023-02-11T04:36:09;97506.69;;;-3.35;76.70
10978;BME280;5542;48.272;10.794;2023-02-11T04:38:36;97507.31;;;-3.31;76.33
10978;BME280;5542;48.272;10.794;2023-02-11T04:41:04;97511.72;;;-3.33;76.79
10978;BME280;5542;48.272;10.794;2023-02-11T04:43:30;97521.72;;;-3.29;76.52
10978;BME280;5542;48.272;10.794;2023-02-11T04:45:57;97509.16;;;-3.33;76.36
10978;BME280;5542;48.272;10.794;2023-02-11T04:48:24;97511.31;;;-3.40;76.51
10978;BME280;5542;48.272;10.794;2023-02-11T04:50:51;97510.78;;;-3.32;75.96
10978;BME280;5542;48.272;10.794;2023-02-11T04:53:17;97510.91;;;-3.34;76.17
10978;BME280;5542;48.272;10.794;2023-02-11T04:55:44;97506.69;;;-3.35;76.28
10978;BME280;5542;48.272;10.794;2023-02-11T04:58:15;97507.41;;;-3.33;76.60
10978;BME280;5542;48.272;10.794;2023-02-11T05:00:41;97498.69;;;-3.30;76.16
10978;BME280;5542;48.272;10.794;2023-02-11T05:03:08;97497.44;;;-3.25;76.49
10978;BME280;5542;48.272;10.794;2023-02-11T05:05:37;97499.19;;;-3.25;76.52
10978;BME280;5542;48.272;10.794;2023-02-11T05:08:03;97491.97;;;-3.33;76.29
10978;BME280;5542;48.272;10.794;2023-02-11T05:10:30;97492.06;;;-3.35;76.70
10978;BME280;5542;48.272;10.794;2023-02-11T05:12:56;97483.41;;;-3.33;77.03
10978;BME280;5542;48.272;10.794;2023-02-11T05:15:25;97493.94;;;-3.37;77.19
10978;BME280;5542;48.272;10.794;2023-02-11T05:17:51;97491.06;;;-3.32;77.41
10978;BME280;5542;48.272;10.794;2023-02-11T05:20:19;97491.66;;;-3.28;77.71
10978;BME280;5542;48.272;10.794;2023-02-11T05:22:46;97494.06;;;-3.25;77.76
10978;BME280;5542;48.272;10.794;2023-02-11T05:25:12;97485.50;;;-3.26;77.80
10978;BME280;5542;48.272;10.794;2023-02-11T05:27:39;97479.53;;;-3.26;78.30
10978;BME280;5542;48.272;10.794;2023-02-11T05:30:07;97490.03;;;-3.29;78.44
10978;BME280;5542;48.272;10.794;2023-02-11T05:32:35;97493.03;;;-3.23;78.81
10978;BME280;5542;48.272;10.794;2023-02-11T05:35:01;97486.84;;;-3.20;78.81
10978;BME280;5542;48.272;10.794;2023-02-11T05:37:28;97487.19;;;-3.12;78.85
10978;BME280;5542;48.272;10.794;2023-02-11T05:39:54;97483.88;;;-3.14;79.01
10978;BME280;5542;48.272;10.794;2023-02-11T05:42:21;97480.28;;;-3.12;79.08
10978;BME280;5542;48.272;10.794;2023-02-11T05:44:47;97479.34;;;-3.11;79.27
10978;BME280;5542;48.272;10.794;2023-02-11T05:47:14;97473.38;;;-3.11;79.40
10978;BME280;5542;48.272;10.794;2023-02-11T05:49:42;97464.53;;;-3.07;79.65
10978;BME280;5542;48.272;10.794;2023-02-11T05:52:08;97460.84;;;-3.03;79.63
10978;BME280;5542;48.272;10.794;2023-02-11T05:54:35;97470.63;;;-2.95;79.83
10978;BME280;5542;48.272;10.794;2023-02-11T05:57:01;97473.41;;;-2.86;79.87
10978;BME280;5542;48.272;10.794;2023-02-11T05:59:28;97468.25;;;-2.86;79.51
10978;BME280;5542;48.272;10.794;2023-02-11T06:01:55;97461.47;;;-2.87;79.48
10978;BME280;5542;48.272;10.794;2023-02-11T06:04:21;97450.97;;;-2.84;79.38
10978;BME280;5542;48.272;10.794;2023-02-11T06:06:49;97441.50;;;-2.70;78.78
10978;BME280;5542;48.272;10.794;2023-02-11T06:09:16;97431.59;;;-2.76;78.29
10978;BME280;5542;48.272;10.794;2023-02-11T06:11:42;97443.34;;;-2.72;78.22
10978;BME280;5542;48.272;10.794;2023-02-11T06:14:09;97445.59;;;-2.80;78.34
10978;BME280;5542;48.272;10.794;2023-02-11T06:16:36;97453.94;;;-2.77;78.09
10978;BME280;5542;48.272;10.794;2023-02-11T06:19:03;97463.09;;;-2.86;78.73
10978;BME280;5542;48.272;10.794;2023-02-11T06:21:29;97461.97;;;-2.81;78.92
10978;BME280;5542;48.272;10.794;2023-02-11T06:23:57;97462.81;;;-2.81;78.95
10978;BME280;5542;48.272;10.794;2023-02-11T06:26:24;97457.66;;;-2.68;78.65
10978;BME280;5542;48.272;10.794;2023-02-11T06:28:50;97446.22;;;-2.64;78.78
10978;BME280;5542;48.272;10.794;2023-02-11T06:31:17;97451.25;;;-2.63;78.80
10978;BME280;5542;48.272;10.794;2023-02-11T06:33:44;97452.72;;;-2.59;79.19
10978;BME280;5542;48.272;10.794;2023-02-11T06:36:13;97441.88;;;-2.51;78.34
10978;BME280;5542;48.272;10.794;2023-02-11T06:38:40;97439.81;;;-2.46;77.99
10978;BME280;5542;48.272;10.794;2023-02-11T06:41:10;97436.75;;;-2.51;77.70
10978;BME280;5542;48.272;10.794;2023-02-11T06:43:37;97446.41;;;-2.42;76.82
10978;BME280;5542;48.272;10.794;2023-02-11T06:46:03;97442.91;;;-2.53;77.65
10978;BME280;5542;48.272;10.794;2023-02-11T06:48:30;97444.28;;;-2.61;77.92
10978;BME280;5542;48.272;10.794;2023-02-11T06:51:00;97437.97;;;-2.57;77.73
10978;BME280;5542;48.272;10.794;2023-02-11T06:53:27;97459.31;;;-2.54;77.95
10978;BME280;5542;48.272;10.794;2023-02-11T06:55:54;97459.19;;;-2.53;77.87
10978;BME280;5542;48.272;10.794;2023-02-11T06:58:22;97456.09;;;-2.45;77.63
10978;BME280;5542;48.272;10.794;2023-02-11T07:00:48;97455.88;;;-2.42;77.41
10978;BME280;5542;48.272;10.794;2023-02-11T07:03:16;97454.66;;;-2.37;77.08
10978;BME280;5542;48.272;10.794;2023-02-11T07:05:43;97461.84;;;-2.29;76.92
10978;BME280;5542;48.272;10.794;2023-02-11T07:08:09;97463.72;;;-2.31;77.45
10978;BME280;5542;48.272;10.794;2023-02-11T07:10:36;97460.69;;;-2.25;76.57
10978;BME280;5542;48.272;10.794;2023-02-11T07:13:02;97449.03;;;-2.18;76.43
10978;BME280;5542;48.272;10.794;2023-02-11T07:15:30;97456.03;;;-2.07;75.91
10978;BME280;5542;48.272;10.794;2023-02-11T07:17:57;97458.41;;;-2.17;76.43
10978;BME280;5542;48.272;10.794;2023-02-11T07:20:24;97468.94;;;-2.20;76.81
10978;BME280;5542;48.272;10.794;2023-02-11T07:22:50;97475.84;;;-2.20;77.26
10978;BME280;5542;48.272;10.794;2023-02-11T07:25:17;97476.97;;;-2.24;77.88
10978;BME280;5542;48.272;10.794;2023-02-11T07:27:43;97482.63;;;-2.19;77.47
10978;BME280;5542;48.272;10.794;2023-02-11T07:30:11;97483.97;;;-2.14;76.98
10978;BME280;5542;48.272;10.794;2023-02-11T07:32:39;97475.22;;;-2.11;77.48
10978;BME280;5542;48.272;10.794;2023-02-11T07:35:06;97479.66;;;-2.13;77.63
10978;BME280;5542;48.272;10.794;2023-02-11T07:37:33;97482.00;;;-2.10;77.60
10978;BME280;5542;48.272;10.794;2023-02-11T07:40:00;97483.81;;;-1.99;77.16
10978;BME280;5542;48.272;10.794;2023-02-11T07:42:26;97462.47;;;-1.89;76.66
10978;BME280;5542;48.272;10.794;2023-02-11T07:44:53;97461.91;;;-1.81;75.54
10978;BME280;5542;48.272;10.794;2023-02-11T07:47:19;97471.84;;;-1.88;76.21
10978;BME280;5542;48.272;10.794;2023-02-11T07:49:47;97479.53;;;-1.99;76.54
10978;BME280;5542;48.272;10.794;2023-02-11T07:52:14;97477.03;;;-2.00;77.02
10978;BME280;5542;48.272;10.794;2023-02-11T07:54:40;97485.88;;;-1.92;77.99
10978;BME280;5542;48.272;10.794;2023-02-11T07:57:07;97479.47;;;-1.62;77.23
10978;BME280;5542;48.272;10.794;2023-02-11T07:59:34;97463.84;;;-1.48;76.73
10978;BME280;5542;48.272;10.794;2023-02-11T08:02:00;97455.56;;;-1.29;75.81
10978;BME280;5542;48.272;10.794;2023-02-11T08:04:27;97447.78;;;-1.05;75.08
10978;BME280;5542;48.272;10.794;2023-02-11T08:06:55;97445.47;;;-0.86;75.75
10978;BME280;5542;48.272;10.794;2023-02-11T08:09:23;97424.75;;;-0.62;74.12
10978;BME280;5542;48.272;10.794;2023-02-11T08:11:49;97428.97;;;-0.49;73.84
10978;BME280;5542;48.272;10.794;2023-02-11T08:14:16;97426.84;;;-0.44;73.24
10978;BME280;5542;48.272;10.794;2023-02-11T08:16:42;97412.16;;;-0.44;73.08
10978;BME280;5542;48.272;10.794;2023-02-11T08:19:12;97415.34;;;-0.52;73.78
10978;BME280;5542;48.272;10.794;2023-02-11T08:21:39;97430.47;;;-0.69;75.28
10978;BME280;5542;48.272;10.794;2023-02-11T08:24:08;97429.66;;;-0.70;75.55
10978;BME280;5542;48.272;10.794;2023-02-11T08:26:36;97428.38;;;-0.64;75.18
10978;BME280;5542;48.272;10.794;2023-02-11T08:29:06;97423.53;;;-0.58;75.38
10978;BME280;5542;48.272;10.794;2023-02-11T08:31:35;97431.91;;;-0.65;75.96
10978;BME280;5542;48.272;10.794;2023-02-11T08:34:02;97421.78;;;-0.57;75.56
10978;BME280;5542;48.272;10.794;2023-02-11T08:36:31;97421.31;;;-0.51;76.14
10978;BME280;5542;48.272;10.794;2023-02-11T08:38:59;97435.41;;;-0.44;76.01
10978;BME280;5542;48.272;10.794;2023-02-11T08:41:28;97440.81;;;-0.24;76.36
10978;BME280;5542;48.272;10.794;2023-02-11T08:43:55;97441.50;;;0.00;76.47
10978;BME280;5542;48.272;10.794;2023-02-11T08:46:21;97439.75;;;0.33;75.99
10978;BME280;5542;48.272;10.794;2023-02-11T08:48:48;97435.84;;;0.70;73.78
10978;BME280;5542;48.272;10.794;2023-02-11T08:51:17;97435.88;;;0.91;72.45
10978;BME280;5542;48.272;10.794;2023-02-11T08:53:44;97443.38;;;0.94;72.38
10978;BME280;5542;48.272;10.794;2023-02-11T08:56:12;97448.53;;;1.06;71.83
10978;BME280;5542;48.272;10.794;2023-02-11T08:58:40;97447.44;;;1.08;71.98
10978;BME280;5542;48.272;10.794;2023-02-11T09:01:08;97453.19;;;1.12;70.45
10978;BME280;5542;48.272;10.794;2023-02-11T09:03:35;97464.63;;;1.30;70.55
10978;BME280;5542;48.272;10.794;2023-02-11T09:06:03;97460.78;;;1.86;64.57
10978;BME280;5542;48.272;10.794;2023-02-11T09:08:30;97463.25;;;1.87;64.50
10978;BME280;5542;48.272;10.794;2023-02-11T09:10:57;97458.69;;;2.10;63.47
10978;BME280;5542;48.272;10.794;2023-02-11T09:13:23;97455.38;;;2.08;63.69
10978;BME280;5542;48.272;10.794;2023-02-11T09:15:51;97459.13;;;2.25;63.11
10978;BME280;5542;48.272;10.794;2023-02-11T09:18:18;97455.09;;;2.71;59.04
10978;BME280;5542;48.272;10.794;2023-02-11T09:20:45;97448.22;;;2.70;59.01
10978;BME280;5542;48.272;10.794;2023-02-11T09:23:11;97447.00;;;2.64;59.62
10978;BME280;5542;48.272;10.794;2023-02-11T09:25:38;97432.63;;;2.70;59.56
10978;BME280;5542;48.272;10.794;2023-02-11T09:28:05;97422.22;;;2.79;59.42
10978;BME280;5542;48.272;10.794;2023-02-11T09:30:32;97405.56;;;2.82;58.18
10978;BME280;5542;48.272;10.794;2023-02-11T09:33:00;97418.28;;;2.75;59.24
10978;BME280;5542;48.272;10.794;2023-02-11T09:35:26;97409.66;;;2.75;58.49
10978;BME280;5542;48.272;10.794;2023-02-11T09:37:53;97411.56;;;2.82;57.85
10978;BME280;5542;48.272;10.794;2023-02-11T09:40:20;97424.97;;;2.68;58.32
10978;BME280;5542;48.272;10.794;2023-02-11T09:42:49;97418.69;;;2.51;58.85
10978;BME280;5542;48.272;10.794;2023-02-11T09:45:21;97416.47;;;2.37;59.62
10978;BME280;5542;48.272;10.794;2023-02-11T09:47:53;97413.06;;;2.46;59.41
10978;BME280;5542;48.272;10.794;2023-02-11T09:50:29;97417.59;;;2.44;59.75
10978;BME280;5542;48.272;10.794;2023-02-11T09:52:59;97427.03;;;2.55;60.57
10978;BME280;5542;48.272;10.794;2023-02-11T09:55:29;97415.41;;;2.78;59.47
10978;BME280;5542;48.272;10.794;2023-02-11T09:58:01;97407.19;;;2.93;59.26
10978;BME280;5542;48.272;10.794;2023-02-11T10:00:33;97417.28;;;3.15;58.14
10978;BME280;5542;48.272;10.794;2023-02-11T10:06:14;97408.53;;;3.06;57.38
10978;BME280;5542;48.272;10.794;2023-02-11T10:08:51;97405.91;;;3.16;57.06
10978;BME280;5542;48.272;10.794;2023-02-11T10:11:27;97396.19;;;3.08;57.22
10978;BME280;5542;48.272;10.794;2023-02-11T10:14:02;97384.72;;;3.11;57.63
10978;BME280;5542;48.272;10.794;2023-02-11T10:16:46;97390.31;;;3.06;58.25
10978;BME280;5542;48.272;10.794;2023-02-11T10:19:29;97386.59;;;3.28;56.97
10978;BME280;5542;48.272;10.794;2023-02-11T10:22:07;97395.63;;;3.24;56.39
10978;BME280;5542;48.272;10.794;2023-02-11T10:24:36;97395.91;;;3.21;57.03
10978;BME280;5542;48.272;10.794;2023-02-11T10:27:11;97403.53;;;3.23;57.40
10978;BME280;5542;48.272;10.794;2023-02-11T10:29:45;97402.84;;;3.30;56.93
10978;BME280;5542;48.272;10.794;2023-02-11T10:32:24;97419.72;;;3.17;57.12
10978;BME280;5542;48.272;10.794;2023-02-11T10:34:55;97413.97;;;3.13;57.48
10978;BME280;5542;48.272;10.794;2023-02-11T10:37:25;97415.34;;;3.17;57.63
10978;BME280;5542;48.272;10.794;2023-02-11T10:39:51;97409.41;;;3.34;56.46
10978;BME280;5542;48.272;10.794;2023-02-11T10:42:18;97408.34;;;3.65;55.64
10978;BME280;5542;48.272;10.794;2023-02-11T10:44:54;97391.59;;;3.77;54.78
10978;BME280;5542;48.272;10.794;2023-02-11T10:47:25;97389.31;;;3.92;53.86
10978;BME280;5542;48.272;10.794;2023-02-11T10:49:52;97383.13;;;3.65;54.76
10978;BME280;5542;48.272;10.794;2023-02-11T10:52:23;97385.81;;;3.46;55.44
10978;BME280;5542;48.272;10.794;2023-02-11T10:55:00;97373.81;;;3.72;54.84
10978;BME280;5542;48.272;10.794;2023-02-11T10:57:30;97375.16;;;3.76;53.91
10978;BME280;5542;48.272;10.794;2023-02-11T11:00:00;97376.59;;;3.61;55.33
10978;BME280;5542;48.272;10.794;2023-02-11T11:02:30;97374.38;;;3.66;54.89
10978;BME280;5542;48.272;10.794;2023-02-11T11:05:00;97361.13;;;3.87;53.92
10978;BME280;5542;48.272;10.794;2023-02-11T11:07:29;97360.31;;;3.87;54.20
10978;BME280;5542;48.272;10.794;2023-02-11T11:10:00;97356.72;;;3.88;53.75
10978;BME280;5542;48.272;10.794;2023-02-11T11:12:36;97348.78;;;4.07;53.43
10978;BME280;5542;48.272;10.794;2023-02-11T11:15:19;97344.56;;;4.06;53.50
10978;BME280;5542;48.272;10.794;2023-02-11T11:17:47;97350.88;;;4.21;53.25
10978;BME280;5542;48.272;10.794;2023-02-11T11:20:19;97351.56;;;4.23;52.71
10978;BME280;5542;48.272;10.794;2023-02-11T11:22:48;97348.34;;;4.11;53.59
10978;BME280;5542;48.272;10.794;2023-02-11T11:25:24;97350.31;;;4.27;52.93
10978;BME280;5542;48.272;10.794;2023-02-11T11:27:55;97343.00;;;4.49;54.05
10978;BME280;5542;48.272;10.794;2023-02-11T11:30:25;97338.88;;;4.64;53.39
10978;BME280;5542;48.272;10.794;2023-02-11T11:32:52;97332.41;;;4.94;52.17
10978;BME280;5542;48.272;10.794;2023-02-11T11:35:24;97338.81;;;5.00;51.73
10978;BME280;5542;48.272;10.794;2023-02-11T11:37:56;97333.25;;;5.03;51.85
10978;BME280;5542;48.272;10.794;2023-02-11T11:40:26;97337.75;;;4.93;52.43
10978;BME280;5542;48.272;10.794;2023-02-11T11:43:15;97339.25;;;4.95;52.38
10978;BME280;5542;48.272;10.794;2023-02-11T11:45:52;97343.31;;;4.90;53.02
10978;BME280;5542;48.272;10.794;2023-02-11T11:48:21;97348.28;;;4.83;52.95
10978;BME280;5542;48.272;10.794;2023-02-11T11:50:52;97342.56;;;4.79;52.72
10978;BME280;5542;48.272;10.794;2023-02-11T11:53:22;97339.78;;;4.99;52.47
10978;BME280;5542;48.272;10.794;2023-02-11T11:55:58;97340.72;;;4.98;52.56
10978;BME280;5542;48.272;10.794;2023-02-11T11:58:28;97339.09;;;5.23;51.95
10978;BME280;5542;48.272;10.794;2023-02-11T12:01:02;97339.63;;;5.34;51.85
10978;BME280;5542;48.272;10.794;2023-02-11T12:04:04;97334.81;;;5.48;51.22
10978;BME280;5542;48.272;10.794;2023-02-11T12:06:41;97332.84;;;5.42;51.38
10978;BME280;5542;48.272;10.794;2023-02-11T12:09:19;97334.06;;;5.29;51.65
10978;BME280;5542;48.272;10.794;2023-02-11T12:12:13;97329.75;;;5.46;51.46
10978;BME280;5542;48.272;10.794;2023-02-11T12:14:48;97320.28;;;5.45;51.41
10978;BME280;5542;48.272;10.794;2023-02-11T12:17:33;97325.06;;;5.58;51.42
10978;BME280;5542;48.272;10.794;2023-02-11T12:20:21;97324.75;;;5.69;51.68
10978;BME280;5542;48.272;10.794;2023-02-11T12:22:59;97329.72;;;5.88;51.09
10978;BME280;5542;48.272;10.794;2023-02-11T12:25:32;97326.69;;;6.09;50.11
10978;BME280;5542;48.272;10.794;2023-02-11T12:28:21;97325.53;;;6.12;49.53
10978;BME280;5542;48.272;10.794;2023-02-11T12:31:03;97320.97;;;6.06;49.57
10978;BME280;5542;48.272;10.794;2023-02-11T12:36:41;97322.31;;;6.18;49.21
10978;BME280;5542;48.272;10.794;2023-02-11T12:39:19;97322.16;;;6.20;49.84
10978;BME280;5542;48.272;10.794;2023-02-11T12:42:03;97311.22;;;6.32;48.10
10978;BME280;5542;48.272;10.794;2023-02-11T12:45:07;97303.69;;;6.21;48.71
10978;BME280;5542;48.272;10.794;2023-02-11T12:47:43;97307.28;;;6.28;49.18
10978;BME280;5542;48.272;10.794;2023-02-11T12:50:22;97312.00;;;6.16;49.79
10978;BME280;5542;48.272;10.794;2023-02-11T12:53:03;97308.59;;;6.24;50.48
10978;BME280;5542;48.272;10.794;2023-02-11T12:55:37;97299.78;;;6.50;48.96
10978;BME280;5542;48.272;10.794;2023-02-11T12:58:11;97288.66;;;6.64;47.78
10978;BME280;5542;48.272;10.794;2023-02-11T13:00:45;97285.34;;;6.95;47.22
10978;BME280;5542;48.272;10.794;2023-02-11T13:03:18;97278.19;;;6.80;47.46
10978;BME280;5542;48.272;10.794;2023-02-11T13:05:49;97278.03;;;6.74;48.04
10978;BME280;5542;48.272;10.794;2023-02-11T13:08:22;97277.38;;;6.63;48.43
10978;BME280;5542;48.272;10.794;2023-02-11T13:10:54;97271.03;;;6.58;48.43
10978;BME280;5542;48.272;10.794;2023-02-11T13:13:24;97263.16;;;6.74;48.03
10978;BME280;5542;48.272;10.794;2023-02-11T13:15:58;97268.72;;;6.79;47.99
10978;BME280;5542;48.272;10.794;2023-02-11T13:18:33;97258.56;;;6.84;47.75
10978;BME280;5542;48.272;10.794;2023-02-11T13:21:16;97263.41;;;7.04;47.40
10978;BME280;5542;48.272;10.794;2023-02-11T13:23:49;97265.56;;;7.00;48.61
10978;BME280;5542;48.272;10.794;2023-02-11T13:26:24;97270.66;;;6.93;48.04
10978;BME280;5542;48.272;10.794;2023-02-11T13:28:59;97257.91;;;6.90;48.35
10978;BME280;5542;48.272;10.794;2023-02-11T13:31:29;97264.75;;;6.91;48.23
10978;BME280;5542;48.272;10.794;2023-02-11T13:33:56;97264.41;;;7.03;47.96